createdAt,value
2023-01-27T00:03:54.543Z,4.68
2023-01-27T00:08:57.676Z,4.75
2023-01-27T00:14:04.417Z,4.75
2023-01-27T00:19:19.931Z,4.76
2023-01-27T00:24:50.768Z,4.77
2023-01-27T00:30:23.259Z,4.76
2023-01-27T00:35:31.000Z,4.76
2023-01-27T00:40:37.807Z,4.75
2023-01-27T00:45:54.425Z,4.75
2023-01-27T00:50:57.606Z,4.74
2023-01-27T00:56:03.468Z,4.72
2023-01-27T01:01:19.590Z,4.69
2023-01-27T01:06:32.112Z,4.68
2023-01-27T01:11:47.914Z,4.65
2023-01-27T01:17:06.452Z,4.64
2023-01-27T01:22:16.851Z,4.59
2023-01-27T01:27:22.483Z,4.52
2023-01-27T01:32:31.019Z,4.56
2023-01-27T01:43:08.242Z,4.53
2023-01-27T01:48:46.653Z,4.48
2023-01-27T01:53:58.159Z,4.53
2023-01-27T01:59:15.812Z,4.49
2023-01-27T02:04:30.526Z,4.41
2023-01-27T02:09:38.079Z,4.28
2023-01-27T02:14:53.298Z,4.26
2023-01-27T02:20:14.715Z,4.21
2023-01-27T02:25:30.812Z,4.20
2023-01-27T02:30:39.361Z,4.20
2023-01-27T02:36:11.417Z,4.22
2023-01-27T02:41:28.347Z,4.21
2023-01-27T02:46:35.395Z,4.16
2023-01-27T02:51:41.421Z,4.18
2023-01-27T02:56:50.132Z,4.10
2023-01-27T03:02:03.972Z,4.08
2023-01-27T03:07:10.501Z,4.04
2023-01-27T03:12:25.702Z,4.02
2023-01-27T03:17:52.258Z,3.98
2023-01-27T03:22:58.603Z,3.97
2023-01-27T03:28:06.018Z,3.87
2023-01-27T03:33:43.082Z,3.90
2023-01-27T03:39:41.176Z,3.87
2023-01-27T03:45:02.429Z,3.94
2023-01-27T03:55:44.686Z,3.97
2023-01-27T04:00:51.142Z,3.95
2023-01-27T04:06:19.529Z,3.91
2023-01-27T04:12:00.545Z,3.86
2023-01-27T04:17:08.466Z,3.84
2023-01-27T04:22:30.714Z,3.82
2023-01-27T04:27:41.655Z,3.73
2023-01-27T04:32:46.238Z,3.70
2023-01-27T04:37:51.796Z,3.72
2023-01-27T04:43:00.264Z,3.71
2023-01-27T04:48:09.164Z,3.68
2023-01-27T04:53:15.564Z,3.68
2023-01-27T04:58:30.573Z,3.63
2023-01-27T05:03:33.568Z,3.67
2023-01-27T05:08:38.714Z,3.67
2023-01-27T05:13:47.185Z,3.67
2023-01-27T05:18:54.968Z,3.71
2023-01-27T05:24:08.594Z,3.72
2023-01-27T05:29:19.567Z,3.77
2023-01-27T05:34:30.993Z,3.75
2023-01-27T05:39:43.803Z,3.80
2023-01-27T05:44:50.510Z,3.81
2023-01-27T05:49:57.267Z,3.82
2023-01-27T05:55:07.704Z,3.82
2023-01-27T06:00:29.634Z,3.82
2023-01-27T06:05:32.752Z,3.88
2023-01-27T06:11:02.644Z,3.87
2023-01-27T06:16:12.157Z,3.91
2023-01-27T06:21:22.802Z,3.91
2023-01-27T06:26:40.579Z,3.92
2023-01-27T06:31:52.266Z,3.94
2023-01-27T06:37:01.133Z,3.97
2023-01-27T06:42:16.107Z,3.97
2023-01-27T06:47:28.363Z,3.98
2023-01-27T06:52:35.487Z,3.99
2023-01-27T06:57:39.821Z,4.00
2023-01-27T07:02:45.927Z,3.99
2023-01-27T07:08:06.441Z,3.99
2023-01-27T07:13:23.777Z,3.98
2023-01-27T07:18:27.736Z,4.00
2023-01-27T07:23:36.784Z,4.00
2023-01-27T07:28:42.485Z,3.98
2023-01-27T07:33:50.846Z,3.96
2023-01-27T07:39:00.101Z,3.93
2023-01-27T07:44:15.409Z,3.90
2023-01-27T07:49:20.640Z,3.88
2023-01-27T07:54:28.328Z,3.87
2023-01-27T07:59:44.288Z,3.89
2023-01-27T08:05:00.647Z,3.81
2023-01-27T08:10:11.615Z,3.78
2023-01-27T08:15:19.226Z,3.76
2023-01-27T08:20:33.035Z,3.75
2023-01-27T08:25:38.970Z,3.87
2023-01-27T08:30:53.140Z,3.65
2023-01-27T08:35:57.196Z,3.46
2023-01-27T08:46:46.919Z,3.25
2023-01-27T08:51:50.011Z,3.21
2023-01-27T08:56:58.419Z,3.27
2023-01-27T09:02:23.598Z,3.36
2023-01-27T09:07:28.959Z,3.52
2023-01-27T09:12:34.975Z,3.66
2023-01-27T09:17:53.511Z,3.68
2023-01-27T09:23:10.389Z,3.82
2023-01-27T09:28:18.078Z,4.00
2023-01-27T09:33:27.025Z,4.21
2023-01-27T09:38:47.262Z,4.30
2023-01-27T09:44:33.396Z,4.39
2023-01-27T09:50:08.874Z,4.50
2023-01-27T09:55:27.862Z,4.68
2023-01-27T10:00:46.858Z,4.72
2023-01-27T10:06:22.058Z,4.84
2023-01-27T10:12:01.822Z,4.82
2023-01-27T10:17:46.096Z,5.11
2023-01-27T10:23:32.181Z,5.16
2023-01-27T10:28:37.790Z,5.11
2023-01-27T10:34:00.608Z,5.20
2023-01-27T10:39:32.122Z,5.40
2023-01-27T10:45:09.170Z,5.43
2023-01-27T10:50:53.890Z,5.54
2023-01-27T10:56:18.246Z,5.56
2023-01-27T11:01:33.512Z,5.64
2023-01-27T11:06:47.474Z,5.68
2023-01-27T11:12:03.226Z,5.72
2023-01-27T11:17:30.429Z,5.61
2023-01-27T11:22:50.167Z,5.56
2023-01-27T11:28:32.511Z,5.65
2023-01-27T11:33:51.968Z,5.55
2023-01-27T11:39:07.752Z,5.48
2023-01-27T11:44:25.917Z,5.27
2023-01-27T11:49:41.127Z,5.05
2023-01-27T11:55:00.181Z,5.06
2023-01-27T12:00:30.799Z,5.04
2023-01-27T12:05:46.896Z,5.08
2023-01-27T12:11:00.819Z,5.01
2023-01-27T12:16:22.573Z,5.23
2023-01-27T12:21:38.033Z,5.29
2023-01-27T12:27:00.582Z,5.30
2023-01-27T12:32:05.536Z,5.14
2023-01-27T12:37:23.211Z,5.05
2023-01-27T12:42:51.692Z,5.16
2023-01-27T12:48:16.730Z,5.11
2023-01-27T12:53:30.831Z,5.08
2023-01-27T12:58:40.439Z,5.19
2023-01-27T13:04:29.698Z,5.04
2023-01-27T13:09:42.300Z,4.84
2023-01-27T13:15:03.002Z,4.86
2023-01-27T13:20:28.586Z,4.95
2023-01-27T13:25:41.198Z,5.02
2023-01-27T13:31:06.543Z,5.04
2023-01-27T13:36:26.026Z,5.02
2023-01-27T13:41:58.890Z,4.98
2023-01-27T13:47:26.706Z,5.11
2023-01-27T13:53:06.155Z,5.26
2023-01-27T13:58:24.523Z,5.23
2023-01-27T14:04:07.060Z,5.04
2023-01-27T14:09:32.743Z,5.09
2023-01-27T14:15:05.684Z,5.13
2023-01-27T14:20:40.746Z,5.16
2023-01-27T14:25:58.493Z,5.17
2023-01-27T14:31:12.233Z,5.13
2023-01-27T14:36:45.460Z,4.97
2023-01-27T14:42:02.011Z,4.87
2023-01-27T14:47:30.381Z,4.79
2023-01-27T14:52:45.101Z,4.73
2023-01-27T14:58:13.993Z,4.75
2023-01-27T15:04:02.371Z,4.77
2023-01-27T15:15:45.739Z,4.64
2023-01-27T15:21:34.421Z,4.55
2023-01-27T15:27:08.529Z,4.50
2023-01-27T15:32:37.774Z,4.43
2023-01-27T15:38:16.315Z,4.40
2023-01-27T15:43:28.043Z,4.37
2023-01-27T15:48:47.639Z,4.31
2023-01-27T15:54:12.063Z,4.29
2023-01-27T15:59:22.695Z,4.22
2023-01-27T16:04:36.252Z,4.16
2023-01-27T16:09:42.942Z,4.14
2023-01-27T16:14:48.421Z,4.13
2023-01-27T16:20:22.128Z,4.20
2023-01-27T16:25:42.160Z,4.21
2023-01-27T16:31:01.484Z,4.22
2023-01-27T16:36:24.233Z,4.21
2023-01-27T16:41:37.903Z,4.20
2023-01-27T16:47:16.085Z,4.17
2023-01-27T16:52:42.824Z,4.00
2023-01-27T16:58:10.686Z,4.03
2023-01-27T17:04:07.727Z,4.00
2023-01-27T17:09:27.736Z,4.00
2023-01-27T17:14:42.244Z,4.01
2023-01-27T17:20:05.536Z,3.98
2023-01-27T17:25:22.079Z,3.99
2023-01-27T17:30:36.692Z,3.99
2023-01-27T17:35:57.689Z,4.01
2023-01-27T17:41:12.870Z,4.04
2023-01-27T17:46:32.832Z,4.01
2023-01-27T17:51:44.039Z,4.01
2023-01-27T17:57:03.562Z,4.01
2023-01-27T18:02:49.620Z,3.99
2023-01-27T18:08:18.918Z,3.97
2023-01-27T18:16:07.189Z,3.94
2023-01-27T18:19:29.300Z,3.85
2023-01-27T18:24:34.982Z,3.83
2023-01-27T18:29:45.005Z,3.80
2023-01-27T18:34:50.226Z,3.75
2023-01-27T18:39:58.722Z,3.81
2023-01-27T18:45:16.529Z,3.81
2023-01-27T18:50:26.653Z,3.77
2023-01-27T18:55:43.621Z,3.79
2023-01-27T19:01:00.581Z,3.79
2023-01-27T19:06:12.325Z,3.76
2023-01-27T19:11:18.313Z,3.71
2023-01-27T19:16:30.879Z,3.73
2023-01-27T19:21:45.992Z,3.71
2023-01-27T19:26:50.095Z,3.67
2023-01-27T19:32:01.995Z,3.65
2023-01-27T19:37:23.706Z,3.62
2023-01-27T19:42:32.021Z,3.59
2023-01-27T19:48:00.256Z,3.60
2023-01-27T19:53:06.120Z,3.63
2023-01-27T19:58:27.467Z,3.67
2023-01-27T20:03:31.959Z,3.65
2023-01-27T20:13:55.204Z,3.56
2023-01-27T20:19:02.248Z,3.53
2023-01-27T20:24:06.543Z,3.51
2023-01-27T20:29:16.643Z,3.55
2023-01-27T20:34:28.066Z,3.50
2023-01-27T20:39:41.418Z,3.47
2023-01-27T20:45:01.608Z,3.47
2023-01-27T20:50:07.752Z,3.51
2023-01-27T20:55:19.988Z,3.51
2023-01-27T21:00:29.203Z,3.54
2023-01-27T21:05:43.040Z,3.43
2023-01-27T21:11:07.297Z,3.45
2023-01-27T21:16:16.732Z,3.42
2023-01-27T21:21:29.921Z,3.36
2023-01-27T21:26:36.750Z,3.38
2023-01-27T21:31:45.621Z,3.36
2023-01-27T21:37:19.813Z,3.24
2023-01-27T21:42:57.688Z,3.29
2023-01-27T21:48:05.763Z,3.27
2023-01-27T21:53:29.068Z,3.31
2023-01-27T21:58:34.787Z,3.39
2023-01-27T22:03:48.193Z,3.44
2023-01-27T22:08:58.566Z,3.46
2023-01-27T22:14:01.746Z,3.47
2023-01-27T22:19:07.697Z,3.43
2023-01-27T22:24:24.451Z,3.43
2023-01-27T22:29:35.434Z,3.44
2023-01-27T22:34:46.707Z,3.40
2023-01-27T22:39:57.658Z,3.37
2023-01-27T22:45:09.292Z,3.28
2023-01-27T22:50:25.557Z,3.23
2023-01-27T22:55:54.705Z,3.17
2023-01-27T23:01:03.402Z,3.13
2023-01-27T23:06:14.072Z,3.04
2023-01-27T23:11:32.844Z,3.02
2023-01-27T23:17:03.335Z,3.04
2023-01-27T23:22:09.379Z,2.96
2023-01-27T23:32:50.683Z,2.95
2023-01-27T23:38:19.374Z,2.95
2023-01-27T23:43:39.058Z,2.92
2023-01-27T23:49:04.230Z,2.77
2023-01-27T23:54:12.580Z,2.85
2023-01-27T23:59:35.290Z,2.83
